createdAt,value
2024-05-09T00:00:38.281Z,20
2024-05-09T00:10:55.797Z,20
2024-05-09T00:21:17.667Z,19
2024-05-09T00:31:21.188Z,22
2024-05-09T00:41:25.967Z,20
2024-05-09T00:51:25.026Z,21
2024-05-09T01:01:30.010Z,21
2024-05-09T01:11:37.618Z,21
2024-05-09T01:21:44.122Z,26
2024-05-09T01:31:49.761Z,27
2024-05-09T01:41:57.036Z,22
2024-05-09T01:52:03.535Z,21
2024-05-09T02:02:08.834Z,24
2024-05-09T02:12:17.066Z,22
2024-05-09T02:22:21.778Z,32
2024-05-09T02:32:29.129Z,22
2024-05-09T02:42:35.526Z,19
2024-05-09T02:52:41.072Z,18
2024-05-09T03:02:49.052Z,19
2024-05-09T03:12:54.532Z,17
2024-05-09T03:23:00.650Z,19
2024-05-09T03:33:07.800Z,17
2024-05-09T03:43:12.569Z,25
2024-05-09T03:53:16.061Z,25
2024-05-09T04:03:23.341Z,19
2024-05-09T04:13:27.235Z,14
2024-05-09T04:23:32.637Z,13
2024-05-09T04:33:42.956Z,14
2024-05-09T04:43:44.521Z,13
2024-05-09T04:53:53.900Z,13
2024-05-09T05:04:02.529Z,13
2024-05-09T05:14:10.674Z,12
2024-05-09T05:24:12.675Z,12
2024-05-09T05:34:18.965Z,13
2024-05-09T05:44:24.115Z,12
2024-05-09T05:54:30.796Z,14
2024-05-09T06:04:38.231Z,13
2024-05-09T06:14:44.063Z,14
2024-05-09T06:24:51.995Z,15
2024-05-09T06:34:55.584Z,14
2024-05-09T06:45:01.942Z,14
2024-05-09T06:55:08.105Z,14
2024-05-09T07:05:16.206Z,14
2024-05-09T07:15:25.107Z,11
2024-05-09T07:25:26.165Z,10
2024-05-09T07:35:33.368Z,12
2024-05-09T07:54:48.752Z,12
2024-05-09T08:04:49.149Z,11
2024-05-09T08:14:53.875Z,10
2024-05-09T08:25:01.254Z,12
2024-05-09T08:35:07.609Z,6
2024-05-09T08:45:13.879Z,6
2024-05-09T08:55:20.856Z,7
2024-05-09T09:05:27.497Z,4
2024-05-09T09:15:33.005Z,4
2024-05-09T09:25:39.545Z,9
2024-05-09T09:35:45.475Z,5
2024-05-09T09:45:53.499Z,4
2024-05-09T09:55:58.044Z,6
2024-05-09T10:06:05.335Z,7
2024-05-09T10:16:10.304Z,8
2024-05-09T10:26:13.653Z,7
2024-05-09T10:36:17.958Z,10
2024-05-09T10:46:23.529Z,10
2024-05-09T10:56:28.879Z,9
2024-05-09T11:06:35.753Z,8
2024-05-09T11:16:42.068Z,7
2024-05-09T11:26:49.100Z,6
2024-05-09T11:36:55.750Z,7
2024-05-09T11:47:03.718Z,6
2024-05-09T11:57:09.871Z,9
2024-05-09T12:07:16.495Z,8
2024-05-09T12:17:22.350Z,9
2024-05-09T12:27:27.775Z,9
2024-05-09T12:37:33.931Z,7
2024-05-09T12:47:41.382Z,8
2024-05-09T12:57:46.582Z,7
2024-05-09T13:07:55.244Z,7
2024-05-09T13:18:01.919Z,9
2024-05-09T13:28:06.786Z,7
2024-05-09T13:38:13.054Z,7
2024-05-09T13:48:20.262Z,9
2024-05-09T13:58:26.393Z,9
2024-05-09T14:08:31.476Z,9
2024-05-09T14:18:44.268Z,6
2024-05-09T14:28:45.431Z,9
2024-05-09T14:38:51.450Z,9
2024-05-09T14:48:58.161Z,9
2024-05-09T14:59:02.744Z,7
2024-05-09T15:09:08.427Z,6
2024-05-09T15:19:19.282Z,9
2024-05-09T15:29:22.569Z,10
2024-05-09T15:39:28.294Z,8
2024-05-09T15:49:38.311Z,7
2024-05-09T15:59:42.368Z,10
2024-05-09T16:09:48.247Z,8
2024-05-09T16:19:54.705Z,7
2024-05-09T16:29:59.310Z,10
2024-05-09T16:40:09.873Z,10
2024-05-09T16:50:12.847Z,10
2024-05-09T17:00:22.428Z,8
2024-05-09T17:10:34.054Z,10
2024-05-09T17:20:42.998Z,8
2024-05-09T17:31:05.704Z,9
2024-05-09T17:41:18.192Z,10
2024-05-09T17:51:21.556Z,14
2024-05-09T18:01:27.236Z,9
2024-05-09T18:11:29.279Z,13
2024-05-09T18:21:33.445Z,17
2024-05-09T18:31:37.146Z,17
2024-05-09T18:41:45.907Z,11
2024-05-09T18:51:51.254Z,17
2024-05-09T19:01:58.459Z,12
2024-05-09T19:12:03.709Z,12
2024-05-09T19:22:12.742Z,13
2024-05-09T19:32:16.571Z,14
2024-05-09T19:42:21.514Z,15
2024-05-09T19:52:27.395Z,13
2024-05-09T20:02:35.275Z,15
2024-05-09T20:12:40.179Z,15
2024-05-09T20:22:46.159Z,13
2024-05-09T20:32:54.051Z,13
2024-05-09T20:42:59.856Z,13
2024-05-09T20:53:06.573Z,15
2024-05-09T21:03:13.779Z,17
2024-05-09T21:13:20.637Z,16
2024-05-09T21:23:23.442Z,16
2024-05-09T21:33:31.128Z,15
2024-05-09T21:43:35.099Z,16
2024-05-09T21:53:42.468Z,15
2024-05-09T22:03:49.051Z,16
2024-05-09T22:13:55.049Z,14
2024-05-09T22:24:01.998Z,16
2024-05-09T22:34:09.907Z,15
2024-05-09T22:44:14.099Z,14
2024-05-09T22:54:19.933Z,17
2024-05-09T23:04:27.108Z,14
2024-05-09T23:14:32.621Z,15
2024-05-09T23:24:38.972Z,16
2024-05-09T23:34:45.900Z,13
2024-05-09T23:44:48.911Z,13
2024-05-09T23:54:54.488Z,12
